sensor_id;sensor_type;location;lat;lon;timestamp;P1;durP1;ratioP1;P2;durP2;ratioP2
3769;SDS011;1900;48.890;9.190;2023-07-09T00:01:14;7.67;;;5.50;;
3769;SDS011;1900;48.890;9.190;2023-07-09T00:03:42;9.43;;;5.10;;
3769;SDS011;1900;48.890;9.190;2023-07-09T00:06:16;8.20;;;5.87;;
3769;SDS011;1900;48.890;9.190;2023-07-09T00:08:44;7.73;;;5.67;;
3769;SDS011;1900;48.890;9.190;2023-07-09T00:11:12;7.77;;;5.47;;
3769;SDS011;1900;48.890;9.190;2023-07-09T00:13:39;8.87;;;5.73;;
3769;SDS011;1900;48.890;9.190;2023-07-09T00:16:09;8.83;;;5.20;;
3769;SDS011;1900;48.890;9.190;2023-07-09T00:18:37;9.90;;;6.50;;
3769;SDS011;1900;48.890;9.190;2023-07-09T00:21:03;9.93;;;6.93;;
3769;SDS011;1900;48.890;9.190;2023-07-09T00:23:29;10.13;;;7.00;;
3769;SDS011;1900;48.890;9.190;2023-07-09T00:25:55;9.80;;;5.77;;
3769;SDS011;1900;48.890;9.190;2023-07-09T00:28:20;7.30;;;5.10;;
3769;SDS011;1900;48.890;9.190;2023-07-09T00:30:47;9.07;;;5.53;;
3769;SDS011;1900;48.890;9.190;2023-07-09T00:33:14;5.50;;;4.27;;
3769;SDS011;1900;48.890;9.190;2023-07-09T00:35:44;14.77;;;4.60;;
3769;SDS011;1900;48.890;9.190;2023-07-09T00:38:15;7.70;;;4.90;;
3769;SDS011;1900;48.890;9.190;2023-07-09T00:40:47;16.80;;;5.20;;
3769;SDS011;1900;48.890;9.190;2023-07-09T00:43:22;14.83;;;4.90;;
3769;SDS011;1900;48.890;9.190;2023-07-09T00:46:08;6.83;;;5.20;;
3769;SDS011;1900;48.890;9.190;2023-07-09T00:48:42;8.80;;;4.93;;
3769;SDS011;1900;48.890;9.190;2023-07-09T00:51:12;8.03;;;5.90;;
3769;SDS011;1900;48.890;9.190;2023-07-09T00:53:41;6.00;;;4.90;;
3769;SDS011;1900;48.890;9.190;2023-07-09T00:56:15;8.13;;;4.80;;
3769;SDS011;1900;48.890;9.190;2023-07-09T00:58:49;9.47;;;5.00;;
3769;SDS011;1900;48.890;9.190;2023-07-09T01:01:16;8.50;;;4.57;;
3769;SDS011;1900;48.890;9.190;2023-07-09T01:03:47;7.37;;;4.80;;
3769;SDS011;1900;48.890;9.190;2023-07-09T01:06:25;11.90;;;6.27;;
3769;SDS011;1900;48.890;9.190;2023-07-09T01:08:57;13.00;;;4.73;;
3769;SDS011;1900;48.890;9.190;2023-07-09T01:11:26;9.90;;;5.93;;
3769;SDS011;1900;48.890;9.190;2023-07-09T01:13:55;10.40;;;5.70;;
3769;SDS011;1900;48.890;9.190;2023-07-09T01:16:32;11.30;;;6.13;;
3769;SDS011;1900;48.890;9.190;2023-07-09T01:19:02;8.17;;;5.53;;
3769;SDS011;1900;48.890;9.190;2023-07-09T01:21:29;9.00;;;6.10;;
3769;SDS011;1900;48.890;9.190;2023-07-09T01:23:56;6.50;;;5.00;;
3769;SDS011;1900;48.890;9.190;2023-07-09T01:26:23;10.50;;;6.87;;
3769;SDS011;1900;48.890;9.190;2023-07-09T01:28:51;8.40;;;4.47;;
3769;SDS011;1900;48.890;9.190;2023-07-09T01:31:18;8.80;;;5.80;;
3769;SDS011;1900;48.890;9.190;2023-07-09T01:33:45;7.60;;;4.90;;
3769;SDS011;1900;48.890;9.190;2023-07-09T01:36:11;7.43;;;4.90;;
3769;SDS011;1900;48.890;9.190;2023-07-09T01:38:40;10.87;;;5.77;;
3769;SDS011;1900;48.890;9.190;2023-07-09T01:41:07;6.80;;;4.63;;
3769;SDS011;1900;48.890;9.190;2023-07-09T01:43:33;7.13;;;5.20;;
3769;SDS011;1900;48.890;9.190;2023-07-09T01:45:59;7.57;;;4.33;;
3769;SDS011;1900;48.890;9.190;2023-07-09T01:48:26;8.13;;;5.70;;
3769;SDS011;1900;48.890;9.190;2023-07-09T01:50:52;9.63;;;5.93;;
3769;SDS011;1900;48.890;9.190;2023-07-09T01:53:20;7.93;;;4.87;;
3769;SDS011;1900;48.890;9.190;2023-07-09T01:55:49;6.60;;;4.60;;
3769;SDS011;1900;48.890;9.190;2023-07-09T01:58:15;9.97;;;5.03;;
3769;SDS011;1900;48.890;9.190;2023-07-09T02:00:41;8.87;;;5.73;;
3769;SDS011;1900;48.890;9.190;2023-07-09T02:03:10;7.63;;;5.60;;
3769;SDS011;1900;48.890;9.190;2023-07-09T02:05:36;8.60;;;5.20;;
3769;SDS011;1900;48.890;9.190;2023-07-09T02:08:02;8.30;;;5.37;;
3769;SDS011;1900;48.890;9.190;2023-07-09T02:10:29;8.10;;;5.37;;
3769;SDS011;1900;48.890;9.190;2023-07-09T02:12:55;9.63;;;6.17;;
3769;SDS011;1900;48.890;9.190;2023-07-09T02:15:21;7.03;;;4.70;;
3769;SDS011;1900;48.890;9.190;2023-07-09T02:17:47;11.93;;;5.53;;
3769;SDS011;1900;48.890;9.190;2023-07-09T02:20:13;7.93;;;4.70;;
3769;SDS011;1900;48.890;9.190;2023-07-09T02:22:39;13.70;;;5.17;;
3769;SDS011;1900;48.890;9.190;2023-07-09T02:25:05;11.83;;;4.80;;
3769;SDS011;1900;48.890;9.190;2023-07-09T02:27:32;8.90;;;4.67;;
3769;SDS011;1900;48.890;9.190;2023-07-09T02:29:58;6.23;;;4.40;;
3769;SDS011;1900;48.890;9.190;2023-07-09T02:32:26;8.77;;;5.53;;
3769;SDS011;1900;48.890;9.190;2023-07-09T02:34:52;6.97;;;4.63;;
3769;SDS011;1900;48.890;9.190;2023-07-09T02:37:20;8.73;;;4.60;;
3769;SDS011;1900;48.890;9.190;2023-07-09T02:39:47;8.67;;;5.00;;
3769;SDS011;1900;48.890;9.190;2023-07-09T02:42:14;8.90;;;5.43;;
3769;SDS011;1900;48.890;9.190;2023-07-09T02:44:41;9.73;;;5.60;;
3769;SDS011;1900;48.890;9.190;2023-07-09T02:47:07;9.63;;;5.70;;
3769;SDS011;1900;48.890;9.190;2023-07-09T02:49:33;5.60;;;4.70;;
3769;SDS011;1900;48.890;9.190;2023-07-09T02:51:59;6.50;;;4.97;;
3769;SDS011;1900;48.890;9.190;2023-07-09T02:54:25;8.60;;;5.27;;
3769;SDS011;1900;48.890;9.190;2023-07-09T02:56:51;12.67;;;5.30;;
3769;SDS011;1900;48.890;9.190;2023-07-09T02:59:16;10.93;;;5.70;;
3769;SDS011;1900;48.890;9.190;2023-07-09T03:01:42;8.40;;;5.30;;
3769;SDS011;1900;48.890;9.190;2023-07-09T03:04:08;6.77;;;5.17;;
3769;SDS011;1900;48.890;9.190;2023-07-09T03:06:34;10.30;;;5.20;;
3769;SDS011;1900;48.890;9.190;2023-07-09T03:09:01;8.00;;;5.03;;
3769;SDS011;1900;48.890;9.190;2023-07-09T03:11:29;8.03;;;5.57;;
3769;SDS011;1900;48.890;9.190;2023-07-09T03:13:56;9.37;;;6.00;;
3769;SDS011;1900;48.890;9.190;2023-07-09T03:16:23;10.37;;;5.80;;
3769;SDS011;1900;48.890;9.190;2023-07-09T03:18:50;8.30;;;4.80;;
3769;SDS011;1900;48.890;9.190;2023-07-09T03:21:16;6.43;;;4.53;;
3769;SDS011;1900;48.890;9.190;2023-07-09T03:23:42;6.20;;;4.70;;
3769;SDS011;1900;48.890;9.190;2023-07-09T03:26:07;9.13;;;5.30;;
3769;SDS011;1900;48.890;9.190;2023-07-09T03:28:33;8.47;;;4.90;;
3769;SDS011;1900;48.890;9.190;2023-07-09T03:30:59;10.50;;;4.83;;
3769;SDS011;1900;48.890;9.190;2023-07-09T03:33:24;6.93;;;4.60;;
3769;SDS011;1900;48.890;9.190;2023-07-09T03:35:51;7.70;;;4.77;;
3769;SDS011;1900;48.890;9.190;2023-07-09T03:38:17;7.47;;;5.00;;
3769;SDS011;1900;48.890;9.190;2023-07-09T03:40:43;8.20;;;4.77;;
3769;SDS011;1900;48.890;9.190;2023-07-09T03:43:09;8.73;;;5.80;;
3769;SDS011;1900;48.890;9.190;2023-07-09T03:45:36;12.73;;;5.47;;
3769;SDS011;1900;48.890;9.190;2023-07-09T03:48:03;9.70;;;5.20;;
3769;SDS011;1900;48.890;9.190;2023-07-09T03:50:30;10.73;;;5.40;;
3769;SDS011;1900;48.890;9.190;2023-07-09T03:52:56;8.17;;;5.10;;
3769;SDS011;1900;48.890;9.190;2023-07-09T03:55:22;10.30;;;5.13;;
3769;SDS011;1900;48.890;9.190;2023-07-09T03:57:50;9.87;;;5.53;;
3769;SDS011;1900;48.890;9.190;2023-07-09T04:00:16;9.80;;;5.30;;
3769;SDS011;1900;48.890;9.190;2023-07-09T04:02:42;8.40;;;4.97;;
3769;SDS011;1900;48.890;9.190;2023-07-09T04:05:10;6.77;;;4.70;;
3769;SDS011;1900;48.890;9.190;2023-07-09T04:07:37;9.30;;;4.30;;
3769;SDS011;1900;48.890;9.190;2023-07-09T04:10:04;9.03;;;4.33;;
3769;SDS011;1900;48.890;9.190;2023-07-09T04:12:30;14.17;;;4.80;;
3769;SDS011;1900;48.890;9.190;2023-07-09T04:14:56;7.43;;;4.70;;
3769;SDS011;1900;48.890;9.190;2023-07-09T04:17:22;11.40;;;5.50;;
3769;SDS011;1900;48.890;9.190;2023-07-09T04:19:48;6.90;;;5.00;;
3769;SDS011;1900;48.890;9.190;2023-07-09T04:22:15;11.37;;;4.90;;
3769;SDS011;1900;48.890;9.190;2023-07-09T04:24:41;5.80;;;4.70;;
3769;SDS011;1900;48.890;9.190;2023-07-09T04:27:08;7.03;;;4.80;;
3769;SDS011;1900;48.890;9.190;2023-07-09T04:29:33;8.20;;;4.90;;
3769;SDS011;1900;48.890;9.190;2023-07-09T04:32:00;8.97;;;4.87;;
3769;SDS011;1900;48.890;9.190;2023-07-09T04:34:27;8.17;;;5.10;;
3769;SDS011;1900;48.890;9.190;2023-07-09T04:36:53;9.63;;;5.27;;
3769;SDS011;1900;48.890;9.190;2023-07-09T04:39:18;8.60;;;5.07;;
3769;SDS011;1900;48.890;9.190;2023-07-09T04:41:44;5.80;;;4.20;;
3769;SDS011;1900;48.890;9.190;2023-07-09T04:44:10;12.00;;;5.30;;
3769;SDS011;1900;48.890;9.190;2023-07-09T04:46:35;7.30;;;4.30;;
3769;SDS011;1900;48.890;9.190;2023-07-09T04:49:02;8.97;;;5.10;;
3769;SDS011;1900;48.890;9.190;2023-07-09T04:51:29;6.87;;;4.57;;
3769;SDS011;1900;48.890;9.190;2023-07-09T04:53:54;5.77;;;4.70;;
3769;SDS011;1900;48.890;9.190;2023-07-09T04:56:20;8.30;;;4.80;;
3769;SDS011;1900;48.890;9.190;2023-07-09T04:58:45;8.80;;;4.30;;
3769;SDS011;1900;48.890;9.190;2023-07-09T05:01:11;7.60;;;4.40;;
3769;SDS011;1900;48.890;9.190;2023-07-09T05:03:37;6.77;;;4.60;;
3769;SDS011;1900;48.890;9.190;2023-07-09T05:06:04;8.07;;;4.73;;
3769;SDS011;1900;48.890;9.190;2023-07-09T05:08:30;7.70;;;4.43;;
3769;SDS011;1900;48.890;9.190;2023-07-09T05:10:56;6.33;;;4.40;;
3769;SDS011;1900;48.890;9.190;2023-07-09T05:13:23;5.30;;;4.60;;
3769;SDS011;1900;48.890;9.190;2023-07-09T05:15:49;5.63;;;4.10;;
3769;SDS011;1900;48.890;9.190;2023-07-09T05:18:15;10.00;;;4.37;;
3769;SDS011;1900;48.890;9.190;2023-07-09T05:20:42;8.40;;;4.03;;
3769;SDS011;1900;48.890;9.190;2023-07-09T05:23:08;6.63;;;4.97;;
3769;SDS011;1900;48.890;9.190;2023-07-09T05:25:35;8.27;;;4.10;;
3769;SDS011;1900;48.890;9.190;2023-07-09T05:28:01;7.83;;;4.90;;
3769;SDS011;1900;48.890;9.190;2023-07-09T05:30:27;10.03;;;5.07;;
3769;SDS011;1900;48.890;9.190;2023-07-09T05:32:53;6.93;;;5.07;;
3769;SDS011;1900;48.890;9.190;2023-07-09T05:35:24;9.77;;;4.50;;
3769;SDS011;1900;48.890;9.190;2023-07-09T05:37:51;7.27;;;4.70;;
3769;SDS011;1900;48.890;9.190;2023-07-09T05:40:17;8.70;;;5.03;;
3769;SDS011;1900;48.890;9.190;2023-07-09T05:42:43;9.53;;;4.90;;
3769;SDS011;1900;48.890;9.190;2023-07-09T05:45:09;9.57;;;5.20;;
3769;SDS011;1900;48.890;9.190;2023-07-09T05:47:35;8.67;;;4.83;;
3769;SDS011;1900;48.890;9.190;2023-07-09T05:50:01;7.93;;;5.03;;
3769;SDS011;1900;48.890;9.190;2023-07-09T05:52:28;8.67;;;5.00;;
3769;SDS011;1900;48.890;9.190;2023-07-09T05:54:55;6.90;;;4.60;;
3769;SDS011;1900;48.890;9.190;2023-07-09T05:57:20;6.63;;;4.87;;
3769;SDS011;1900;48.890;9.190;2023-07-09T05:59:46;7.40;;;4.70;;
3769;SDS011;1900;48.890;9.190;2023-07-09T06:02:13;9.40;;;4.67;;
3769;SDS011;1900;48.890;9.190;2023-07-09T06:04:41;7.30;;;4.83;;
3769;SDS011;1900;48.890;9.190;2023-07-09T06:07:07;8.50;;;5.20;;
3769;SDS011;1900;48.890;9.190;2023-07-09T06:09:34;8.90;;;6.37;;
3769;SDS011;1900;48.890;9.190;2023-07-09T06:12:01;8.77;;;6.00;;
3769;SDS011;1900;48.890;9.190;2023-07-09T06:14:27;11.23;;;5.53;;
3769;SDS011;1900;48.890;9.190;2023-07-09T06:16:53;7.10;;;4.97;;
3769;SDS011;1900;48.890;9.190;2023-07-09T06:19:18;5.20;;;4.03;;
3769;SDS011;1900;48.890;9.190;2023-07-09T06:21:44;7.27;;;4.73;;
3769;SDS011;1900;48.890;9.190;2023-07-09T06:24:10;9.23;;;5.17;;
3769;SDS011;1900;48.890;9.190;2023-07-09T06:26:36;6.33;;;4.83;;
3769;SDS011;1900;48.890;9.190;2023-07-09T06:29:02;8.50;;;4.90;;
3769;SDS011;1900;48.890;9.190;2023-07-09T06:31:28;9.10;;;4.73;;
3769;SDS011;1900;48.890;9.190;2023-07-09T06:33:53;8.00;;;5.33;;
3769;SDS011;1900;48.890;9.190;2023-07-09T06:36:19;8.70;;;5.23;;
3769;SDS011;1900;48.890;9.190;2023-07-09T06:38:45;9.27;;;5.27;;
3769;SDS011;1900;48.890;9.190;2023-07-09T06:41:11;12.10;;;5.30;;
3769;SDS011;1900;48.890;9.190;2023-07-09T06:43:38;11.33;;;5.87;;
3769;SDS011;1900;48.890;9.190;2023-07-09T06:46:05;7.27;;;4.47;;
3769;SDS011;1900;48.890;9.190;2023-07-09T06:48:32;8.00;;;5.10;;
3769;SDS011;1900;48.890;9.190;2023-07-09T06:50:58;7.80;;;5.00;;
3769;SDS011;1900;48.890;9.190;2023-07-09T06:53:25;7.67;;;5.93;;
3769;SDS011;1900;48.890;9.190;2023-07-09T06:55:52;10.27;;;5.10;;
3769;SDS011;1900;48.890;9.190;2023-07-09T06:58:20;6.53;;;4.33;;
3769;SDS011;1900;48.890;9.190;2023-07-09T07:00:50;7.00;;;4.60;;
3769;SDS011;1900;48.890;9.190;2023-07-09T07:03:16;7.60;;;4.67;;
3769;SDS011;1900;48.890;9.190;2023-07-09T07:05:43;7.07;;;4.90;;
3769;SDS011;1900;48.890;9.190;2023-07-09T07:08:10;11.17;;;4.97;;
3769;SDS011;1900;48.890;9.190;2023-07-09T07:10:36;11.73;;;4.80;;
3769;SDS011;1900;48.890;9.190;2023-07-09T07:13:01;6.43;;;4.80;;
3769;SDS011;1900;48.890;9.190;2023-07-09T07:15:27;8.30;;;4.97;;
3769;SDS011;1900;48.890;9.190;2023-07-09T07:17:53;6.17;;;4.43;;
3769;SDS011;1900;48.890;9.190;2023-07-09T07:20:18;10.40;;;6.13;;
3769;SDS011;1900;48.890;9.190;2023-07-09T07:22:44;8.90;;;5.70;;
3769;SDS011;1900;48.890;9.190;2023-07-09T07:25:10;11.50;;;5.70;;
3769;SDS011;1900;48.890;9.190;2023-07-09T07:27:37;10.33;;;4.50;;
3769;SDS011;1900;48.890;9.190;2023-07-09T07:30:03;9.03;;;4.93;;
3769;SDS011;1900;48.890;9.190;2023-07-09T07:32:29;8.23;;;5.10;;
3769;SDS011;1900;48.890;9.190;2023-07-09T07:34:55;12.70;;;4.97;;
3769;SDS011;1900;48.890;9.190;2023-07-09T07:37:20;6.60;;;4.77;;
3769;SDS011;1900;48.890;9.190;2023-07-09T07:39:47;12.13;;;5.37;;
3769;SDS011;1900;48.890;9.190;2023-07-09T07:42:13;7.40;;;5.67;;
3769;SDS011;1900;48.890;9.190;2023-07-09T07:44:39;5.70;;;4.37;;
3769;SDS011;1900;48.890;9.190;2023-07-09T07:47:04;9.53;;;4.83;;
3769;SDS011;1900;48.890;9.190;2023-07-09T07:49:31;5.03;;;4.03;;
3769;SDS011;1900;48.890;9.190;2023-07-09T07:51:57;7.63;;;5.27;;
3769;SDS011;1900;48.890;9.190;2023-07-09T07:54:23;6.30;;;4.40;;
3769;SDS011;1900;48.890;9.190;2023-07-09T07:56:49;7.67;;;4.70;;
3769;SDS011;1900;48.890;9.190;2023-07-09T07:59:16;6.93;;;4.77;;
3769;SDS011;1900;48.890;9.190;2023-07-09T08:01:42;6.13;;;4.80;;
3769;SDS011;1900;48.890;9.190;2023-07-09T08:04:08;6.70;;;4.40;;
3769;SDS011;1900;48.890;9.190;2023-07-09T08:06:34;8.47;;;4.53;;
3769;SDS011;1900;48.890;9.190;2023-07-09T08:09:00;8.30;;;4.60;;
3769;SDS011;1900;48.890;9.190;2023-07-09T08:11:26;7.20;;;4.67;;
3769;SDS011;1900;48.890;9.190;2023-07-09T08:13:53;8.27;;;4.83;;
3769;SDS011;1900;48.890;9.190;2023-07-09T08:16:18;10.20;;;4.90;;
3769;SDS011;1900;48.890;9.190;2023-07-09T08:18:44;7.20;;;4.93;;
3769;SDS011;1900;48.890;9.190;2023-07-09T08:21:10;6.40;;;3.97;;
3769;SDS011;1900;48.890;9.190;2023-07-09T08:23:36;5.43;;;4.20;;
3769;SDS011;1900;48.890;9.190;2023-07-09T08:26:02;6.50;;;4.73;;
3769;SDS011;1900;48.890;9.190;2023-07-09T08:28:29;9.87;;;4.30;;
3769;SDS011;1900;48.890;9.190;2023-07-09T08:30:56;9.40;;;4.70;;
3769;SDS011;1900;48.890;9.190;2023-07-09T08:33:22;6.47;;;4.10;;
3769;SDS011;1900;48.890;9.190;2023-07-09T08:35:49;6.40;;;4.60;;
3769;SDS011;1900;48.890;9.190;2023-07-09T08:38:15;7.23;;;4.57;;
3769;SDS011;1900;48.890;9.190;2023-07-09T08:40:43;9.73;;;5.00;;
3769;SDS011;1900;48.890;9.190;2023-07-09T08:43:38;7.40;;;4.70;;
3769;SDS011;1900;48.890;9.190;2023-07-09T08:48:44;5.97;;;4.20;;
3769;SDS011;1900;48.890;9.190;2023-07-09T08:53:54;6.60;;;4.07;;
3769;SDS011;1900;48.890;9.190;2023-07-09T08:56:24;6.60;;;3.80;;
3769;SDS011;1900;48.890;9.190;2023-07-09T08:58:52;5.00;;;3.70;;
3769;SDS011;1900;48.890;9.190;2023-07-09T09:01:24;9.03;;;3.90;;
3769;SDS011;1900;48.890;9.190;2023-07-09T09:03:58;5.03;;;3.60;;
3769;SDS011;1900;48.890;9.190;2023-07-09T09:06:28;7.77;;;3.80;;
3769;SDS011;1900;48.890;9.190;2023-07-09T09:09:01;4.43;;;3.70;;
3769;SDS011;1900;48.890;9.190;2023-07-09T09:14:15;7.73;;;4.50;;
3769;SDS011;1900;48.890;9.190;2023-07-09T09:16:43;4.77;;;4.07;;
3769;SDS011;1900;48.890;9.190;2023-07-09T09:19:23;6.07;;;3.93;;
3769;SDS011;1900;48.890;9.190;2023-07-09T09:21:57;4.90;;;3.90;;
3769;SDS011;1900;48.890;9.190;2023-07-09T09:24:33;5.97;;;3.97;;
3769;SDS011;1900;48.890;9.190;2023-07-09T09:27:01;8.00;;;4.27;;
3769;SDS011;1900;48.890;9.190;2023-07-09T09:29:27;6.53;;;3.83;;
3769;SDS011;1900;48.890;9.190;2023-07-09T09:31:54;5.57;;;3.90;;
3769;SDS011;1900;48.890;9.190;2023-07-09T09:34:24;4.57;;;3.90;;
3769;SDS011;1900;48.890;9.190;2023-07-09T09:36:53;6.72;;;4.10;;
3769;SDS011;1900;48.890;9.190;2023-07-09T09:39:20;7.47;;;4.20;;
3769;SDS011;1900;48.890;9.190;2023-07-09T09:41:47;5.23;;;3.73;;
3769;SDS011;1900;48.890;9.190;2023-07-09T09:44:20;4.77;;;3.60;;
3769;SDS011;1900;48.890;9.190;2023-07-09T09:46:49;6.20;;;3.87;;
3769;SDS011;1900;48.890;9.190;2023-07-09T09:49:15;7.30;;;3.60;;
3769;SDS011;1900;48.890;9.190;2023-07-09T09:51:42;6.97;;;3.80;;
3769;SDS011;1900;48.890;9.190;2023-07-09T09:54:17;4.15;;;3.72;;
3769;SDS011;1900;48.890;9.190;2023-07-09T09:56:49;4.80;;;3.75;;
3769;SDS011;1900;48.890;9.190;2023-07-09T10:02:18;6.75;;;4.03;;
3769;SDS011;1900;48.890;9.190;2023-07-09T10:04:46;3.75;;;2.80;;
3769;SDS011;1900;48.890;9.190;2023-07-09T10:07:30;3.92;;;3.20;;
3769;SDS011;1900;48.890;9.190;2023-07-09T10:10:00;4.72;;;3.30;;
3769;SDS011;1900;48.890;9.190;2023-07-09T10:15:08;7.13;;;3.95;;
3769;SDS011;1900;48.890;9.190;2023-07-09T10:20:42;7.13;;;5.38;;
3769;SDS011;1900;48.890;9.190;2023-07-09T10:28:50;5.30;;;3.60;;
3769;SDS011;1900;48.890;9.190;2023-07-09T10:37:06;4.20;;;3.30;;
3769;SDS011;1900;48.890;9.190;2023-07-09T10:39:41;6.00;;;3.30;;
3769;SDS011;1900;48.890;9.190;2023-07-09T10:42:22;4.82;;;3.15;;
3769;SDS011;1900;48.890;9.190;2023-07-09T10:45:04;5.30;;;3.00;;
3769;SDS011;1900;48.890;9.190;2023-07-09T10:47:47;6.25;;;3.70;;
3769;SDS011;1900;48.890;9.190;2023-07-09T10:50:32;6.20;;;3.72;;
3769;SDS011;1900;48.890;9.190;2023-07-09T10:53:03;8.57;;;3.95;;
3769;SDS011;1900;48.890;9.190;2023-07-09T10:58:35;4.80;;;3.58;;
3769;SDS011;1900;48.890;9.190;2023-07-09T11:01:05;4.85;;;3.65;;
3769;SDS011;1900;48.890;9.190;2023-07-09T11:03:50;4.32;;;3.13;;
3769;SDS011;1900;48.890;9.190;2023-07-09T11:06:40;7.82;;;3.80;;
3769;SDS011;1900;48.890;9.190;2023-07-09T11:09:13;9.40;;;3.92;;
3769;SDS011;1900;48.890;9.190;2023-07-09T11:11:47;6.28;;;3.45;;
3769;SDS011;1900;48.890;9.190;2023-07-09T11:14:20;5.88;;;3.35;;
3769;SDS011;1900;48.890;9.190;2023-07-09T11:16:51;6.03;;;3.70;;
3769;SDS011;1900;48.890;9.190;2023-07-09T11:19:20;4.25;;;3.28;;
3769;SDS011;1900;48.890;9.190;2023-07-09T11:24:34;5.57;;;3.40;;
3769;SDS011;1900;48.890;9.190;2023-07-09T11:27:19;6.30;;;3.60;;
3769;SDS011;1900;48.890;9.190;2023-07-09T11:29:48;5.45;;;4.10;;
3769;SDS011;1900;48.890;9.190;2023-07-09T11:32:22;5.28;;;3.08;;
3769;SDS011;1900;48.890;9.190;2023-07-09T11:34:48;5.97;;;3.25;;
3769;SDS011;1900;48.890;9.190;2023-07-09T11:37:14;6.57;;;3.13;;
3769;SDS011;1900;48.890;9.190;2023-07-09T11:39:42;5.78;;;3.13;;
3769;SDS011;1900;48.890;9.190;2023-07-09T11:45:00;4.50;;;3.42;;
3769;SDS011;1900;48.890;9.190;2023-07-09T11:47:34;6.13;;;3.95;;
3769;SDS011;1900;48.890;9.190;2023-07-09T11:50:29;4.68;;;3.10;;
3769;SDS011;1900;48.890;9.190;2023-07-09T11:52:56;8.88;;;3.55;;
3769;SDS011;1900;48.890;9.190;2023-07-09T11:55:29;5.15;;;3.53;;
3769;SDS011;1900;48.890;9.190;2023-07-09T11:58:03;5.28;;;3.63;;
3769;SDS011;1900;48.890;9.190;2023-07-09T12:00:30;7.13;;;3.92;;
3769;SDS011;1900;48.890;9.190;2023-07-09T12:03:04;7.45;;;3.00;;
3769;SDS011;1900;48.890;9.190;2023-07-09T12:05:31;4.35;;;3.38;;
3769;SDS011;1900;48.890;9.190;2023-07-09T12:07:57;6.75;;;3.13;;
3769;SDS011;1900;48.890;9.190;2023-07-09T12:10:25;5.13;;;3.25;;
3769;SDS011;1900;48.890;9.190;2023-07-09T12:12:54;5.50;;;3.40;;
3769;SDS011;1900;48.890;9.190;2023-07-09T12:15:23;5.43;;;3.10;;
3769;SDS011;1900;48.890;9.190;2023-07-09T12:18:00;8.75;;;3.53;;
3769;SDS011;1900;48.890;9.190;2023-07-09T12:20:29;9.25;;;3.60;;
3769;SDS011;1900;48.890;9.190;2023-07-09T12:22:59;7.65;;;3.60;;
3769;SDS011;1900;48.890;9.190;2023-07-09T12:25:25;5.43;;;3.15;;
3769;SDS011;1900;48.890;9.190;2023-07-09T12:27:53;4.45;;;3.25;;
3769;SDS011;1900;48.890;9.190;2023-07-09T12:30:19;5.53;;;3.50;;
3769;SDS011;1900;48.890;9.190;2023-07-09T12:32:48;9.70;;;3.67;;
3769;SDS011;1900;48.890;9.190;2023-07-09T12:35:17;5.75;;;3.20;;
3769;SDS011;1900;48.890;9.190;2023-07-09T12:37:44;6.35;;;3.47;;
3769;SDS011;1900;48.890;9.190;2023-07-09T12:40:17;4.20;;;3.30;;
3769;SDS011;1900;48.890;9.190;2023-07-09T12:42:46;5.70;;;3.40;;
3769;SDS011;1900;48.890;9.190;2023-07-09T12:45:21;10.35;;;3.97;;
3769;SDS011;1900;48.890;9.190;2023-07-09T12:47:48;6.90;;;3.35;;
3769;SDS011;1900;48.890;9.190;2023-07-09T12:52:54;5.28;;;3.83;;
3769;SDS011;1900;48.890;9.190;2023-07-09T12:55:23;7.07;;;3.92;;
3769;SDS011;1900;48.890;9.190;2023-07-09T12:57:51;6.03;;;3.70;;
3769;SDS011;1900;48.890;9.190;2023-07-09T13:00:21;6.38;;;3.33;;
3769;SDS011;1900;48.890;9.190;2023-07-09T13:02:52;6.65;;;3.72;;
3769;SDS011;1900;48.890;9.190;2023-07-09T13:05:21;4.57;;;3.35;;
3769;SDS011;1900;48.890;9.190;2023-07-09T13:07:52;9.93;;;3.92;;
3769;SDS011;1900;48.890;9.190;2023-07-09T13:10:23;4.60;;;3.58;;
3769;SDS011;1900;48.890;9.190;2023-07-09T13:12:53;7.05;;;3.55;;
3769;SDS011;1900;48.890;9.190;2023-07-09T13:15:25;3.58;;;2.90;;
3769;SDS011;1900;48.890;9.190;2023-07-09T13:18:02;5.60;;;3.25;;
3769;SDS011;1900;48.890;9.190;2023-07-09T13:20:30;9.73;;;3.20;;
3769;SDS011;1900;48.890;9.190;2023-07-09T13:22:58;5.38;;;3.47;;
3769;SDS011;1900;48.890;9.190;2023-07-09T13:25:24;7.43;;;3.67;;
3769;SDS011;1900;48.890;9.190;2023-07-09T13:27:50;11.05;;;4.15;;
3769;SDS011;1900;48.890;9.190;2023-07-09T13:30:16;4.97;;;2.72;;
3769;SDS011;1900;48.890;9.190;2023-07-09T13:32:43;4.68;;;3.33;;
3769;SDS011;1900;48.890;9.190;2023-07-09T13:35:15;4.13;;;3.05;;
3769;SDS011;1900;48.890;9.190;2023-07-09T13:37:43;9.70;;;4.40;;
3769;SDS011;1900;48.890;9.190;2023-07-09T13:40:11;7.85;;;3.67;;
3769;SDS011;1900;48.890;9.190;2023-07-09T13:42:38;5.20;;;3.38;;
3769;SDS011;1900;48.890;9.190;2023-07-09T13:45:08;6.03;;;3.35;;
3769;SDS011;1900;48.890;9.190;2023-07-09T13:47:45;3.70;;;3.22;;
3769;SDS011;1900;48.890;9.190;2023-07-09T13:50:10;7.60;;;3.67;;
3769;SDS011;1900;48.890;9.190;2023-07-09T13:52:36;9.40;;;3.92;;
3769;SDS011;1900;48.890;9.190;2023-07-09T13:55:02;6.50;;;3.78;;
3769;SDS011;1900;48.890;9.190;2023-07-09T13:57:28;6.75;;;3.72;;
3769;SDS011;1900;48.890;9.190;2023-07-09T13:59:54;5.22;;;3.55;;
3769;SDS011;1900;48.890;9.190;2023-07-09T14:02:23;7.03;;;3.85;;
3769;SDS011;1900;48.890;9.190;2023-07-09T14:04:58;6.28;;;4.05;;
3769;SDS011;1900;48.890;9.190;2023-07-09T14:07:32;7.22;;;3.75;;
3769;SDS011;1900;48.890;9.190;2023-07-09T14:10:01;4.95;;;3.53;;
3769;SDS011;1900;48.890;9.190;2023-07-09T14:12:28;7.05;;;3.80;;
3769;SDS011;1900;48.890;9.190;2023-07-09T14:14:56;4.60;;;3.33;;
3769;SDS011;1900;48.890;9.190;2023-07-09T14:17:24;4.47;;;3.30;;
3769;SDS011;1900;48.890;9.190;2023-07-09T14:19:51;10.48;;;4.68;;
3769;SDS011;1900;48.890;9.190;2023-07-09T14:24:43;3.92;;;3.13;;
3769;SDS011;1900;48.890;9.190;2023-07-09T14:27:08;5.72;;;3.38;;
3769;SDS011;1900;48.890;9.190;2023-07-09T14:29:35;7.45;;;3.47;;
3769;SDS011;1900;48.890;9.190;2023-07-09T14:32:00;4.95;;;3.47;;
3769;SDS011;1900;48.890;9.190;2023-07-09T14:34:28;4.47;;;3.10;;
3769;SDS011;1900;48.890;9.190;2023-07-09T14:36:55;5.90;;;3.70;;
3769;SDS011;1900;48.890;9.190;2023-07-09T14:39:22;7.20;;;3.70;;
3769;SDS011;1900;48.890;9.190;2023-07-09T14:41:48;5.00;;;3.42;;
3769;SDS011;1900;48.890;9.190;2023-07-09T14:44:19;7.45;;;3.63;;
3769;SDS011;1900;48.890;9.190;2023-07-09T14:46:50;6.47;;;3.45;;
3769;SDS011;1900;48.890;9.190;2023-07-09T14:49:17;6.03;;;3.60;;
3769;SDS011;1900;48.890;9.190;2023-07-09T14:51:44;6.00;;;3.58;;
3769;SDS011;1900;48.890;9.190;2023-07-09T14:54:31;4.18;;;3.17;;
3769;SDS011;1900;48.890;9.190;2023-07-09T14:56:57;9.90;;;3.30;;
3769;SDS011;1900;48.890;9.190;2023-07-09T14:59:23;4.65;;;3.10;;
3769;SDS011;1900;48.890;9.190;2023-07-09T15:01:50;7.38;;;3.63;;
3769;SDS011;1900;48.890;9.190;2023-07-09T15:06:47;6.13;;;3.72;;
3769;SDS011;1900;48.890;9.190;2023-07-09T15:09:13;5.18;;;3.17;;
3769;SDS011;1900;48.890;9.190;2023-07-09T15:11:38;4.80;;;2.97;;
3769;SDS011;1900;48.890;9.190;2023-07-09T15:14:08;8.52;;;3.55;;
3769;SDS011;1900;48.890;9.190;2023-07-09T15:16:36;5.53;;;3.05;;
3769;SDS011;1900;48.890;9.190;2023-07-09T15:19:03;6.30;;;3.33;;
3769;SDS011;1900;48.890;9.190;2023-07-09T15:21:36;4.97;;;3.35;;
3769;SDS011;1900;48.890;9.190;2023-07-09T15:24:02;4.63;;;3.15;;
3769;SDS011;1900;48.890;9.190;2023-07-09T15:26:28;4.38;;;3.22;;
3769;SDS011;1900;48.890;9.190;2023-07-09T15:28:54;6.60;;;3.33;;
3769;SDS011;1900;48.890;9.190;2023-07-09T15:31:19;5.57;;;3.13;;
3769;SDS011;1900;48.890;9.190;2023-07-09T15:33:45;10.88;;;3.08;;
3769;SDS011;1900;48.890;9.190;2023-07-09T15:36:11;5.57;;;2.95;;
3769;SDS011;1900;48.890;9.190;2023-07-09T15:38:37;4.00;;;2.78;;
3769;SDS011;1900;48.890;9.190;2023-07-09T15:41:06;4.55;;;3.58;;
3769;SDS011;1900;48.890;9.190;2023-07-09T15:43:38;5.13;;;3.67;;
3769;SDS011;1900;48.890;9.190;2023-07-09T15:46:03;7.80;;;3.85;;
3769;SDS011;1900;48.890;9.190;2023-07-09T15:48:31;7.03;;;3.67;;
3769;SDS011;1900;48.890;9.190;2023-07-09T15:50:57;9.95;;;6.28;;
3769;SDS011;1900;48.890;9.190;2023-07-09T15:53:24;7.20;;;4.20;;
3769;SDS011;1900;48.890;9.190;2023-07-09T15:55:52;4.78;;;3.40;;
3769;SDS011;1900;48.890;9.190;2023-07-09T15:58:24;3.90;;;3.50;;
3769;SDS011;1900;48.890;9.190;2023-07-09T16:00:51;3.92;;;3.53;;
3769;SDS011;1900;48.890;9.190;2023-07-09T16:03:17;4.65;;;3.38;;
3769;SDS011;1900;48.890;9.190;2023-07-09T16:05:43;5.90;;;3.42;;